createdAt,value
2023-01-04T00:02:25.517Z,52.57
2023-01-04T00:05:27.583Z,52.53
2023-01-04T00:08:30.350Z,52.58
2023-01-04T00:11:32.360Z,52.55
2023-01-04T00:14:34.390Z,52.53
2023-01-04T00:17:36.374Z,52.52
2023-01-04T00:20:38.339Z,52.53
2023-01-04T00:23:41.789Z,52.54
2023-01-04T00:26:43.878Z,52.53
2023-01-04T00:29:45.911Z,52.55
2023-01-04T00:32:47.976Z,52.51
2023-01-04T00:35:49.996Z,52.53
2023-01-04T00:39:07.475Z,52.53
2023-01-04T00:42:10.163Z,52.51
2023-01-04T00:45:12.224Z,52.50
2023-01-04T00:48:14.182Z,52.47
2023-01-04T00:51:16.269Z,52.50
2023-01-04T00:54:18.591Z,52.47
2023-01-04T00:57:20.620Z,52.49
2023-01-04T01:00:23.615Z,52.49
2023-01-04T01:03:25.720Z,52.49
2023-01-04T01:06:29.410Z,52.49
2023-01-04T01:09:31.423Z,52.47
2023-01-04T01:12:33.550Z,52.48
2023-01-04T01:15:35.638Z,52.53
2023-01-04T01:18:40.098Z,52.52
2023-01-04T01:21:42.644Z,52.49
2023-01-04T01:24:44.722Z,52.48
2023-01-04T01:27:46.781Z,52.51
2023-01-04T01:30:48.903Z,52.50
2023-01-04T01:33:52.956Z,52.48
2023-01-04T01:36:55.039Z,52.51
2023-01-04T01:39:57.016Z,52.49
2023-01-04T01:42:59.025Z,52.53
2023-01-04T01:46:01.111Z,52.50
2023-01-04T01:49:21.890Z,52.51
2023-01-04T01:52:35.271Z,52.54
2023-01-04T01:55:38.839Z,52.48
2023-01-04T01:58:46.703Z,52.52
2023-01-04T02:01:48.946Z,52.50
2023-01-04T02:04:51.998Z,52.50
2023-01-04T02:07:54.741Z,52.53
2023-01-04T02:10:56.908Z,52.53
2023-01-04T02:14:18.946Z,52.53
2023-01-04T02:17:28.058Z,52.50
2023-01-04T02:20:47.339Z,52.54
2023-01-04T02:24:17.323Z,52.53
2023-01-04T02:27:39.896Z,52.56
2023-01-04T02:30:44.717Z,52.57
2023-01-04T02:34:05.564Z,52.62
2023-01-04T02:37:27.852Z,52.73
2023-01-04T02:40:44.765Z,52.76
2023-01-04T02:44:32.124Z,52.87
2023-01-04T02:47:55.514Z,52.91
2023-01-04T02:50:59.628Z,53.01
2023-01-04T02:54:09.621Z,53.08
2023-01-04T02:57:30.124Z,53.13
2023-01-04T03:01:34.524Z,53.15
2023-01-04T03:05:06.855Z,53.26
2023-01-04T03:08:50.753Z,53.28
2023-01-04T03:12:25.825Z,53.33
2023-01-04T03:15:32.407Z,53.30
2023-01-04T03:18:39.917Z,53.39
2023-01-04T03:21:45.282Z,53.44
2023-01-04T03:25:05.727Z,53.47
2023-01-04T03:28:29.179Z,53.47
2023-01-04T03:32:02.677Z,53.50
2023-01-04T03:35:23.012Z,53.52
2023-01-04T03:38:56.779Z,53.56
2023-01-04T03:42:53.980Z,53.59
2023-01-04T03:46:36.654Z,53.61
2023-01-04T03:49:57.371Z,53.63
2023-01-04T03:53:00.400Z,53.67
2023-01-04T03:56:03.368Z,53.72
2023-01-04T03:59:06.058Z,53.67
2023-01-04T04:02:13.854Z,53.76
2023-01-04T04:05:40.964Z,53.75
2023-01-04T04:08:42.937Z,53.68
2023-01-04T04:11:44.953Z,53.70
2023-01-04T04:14:47.001Z,53.72
2023-01-04T04:17:48.991Z,53.72
2023-01-04T04:20:58.010Z,53.73
2023-01-04T04:24:00.082Z,53.74
2023-01-04T04:27:02.121Z,53.78
2023-01-04T04:30:05.149Z,53.82
2023-01-04T04:33:07.134Z,53.87
2023-01-04T04:36:09.748Z,53.80
2023-01-04T04:39:12.566Z,53.63
2023-01-04T04:42:14.586Z,53.31
2023-01-04T04:45:16.658Z,53.04
2023-01-04T04:48:18.704Z,52.65
2023-01-04T04:51:20.833Z,52.45
2023-01-04T04:54:23.009Z,52.34
2023-01-04T04:57:24.990Z,52.24
2023-01-04T05:00:27.450Z,52.23
2023-01-04T05:03:29.531Z,52.19
2023-01-04T05:06:31.615Z,52.15
2023-01-04T05:09:33.627Z,52.10
2023-01-04T05:12:57.793Z,52.06
2023-01-04T05:16:00.410Z,52.14
2023-01-04T05:19:02.544Z,52.14
2023-01-04T05:22:04.588Z,52.11
2023-01-04T05:25:08.170Z,52.14
2023-01-04T05:28:11.215Z,52.04
2023-01-04T05:31:14.630Z,51.77
2023-01-04T05:34:22.027Z,51.51
2023-01-04T05:37:25.690Z,51.16
2023-01-04T05:40:28.499Z,51.09
2023-01-04T05:43:30.518Z,50.98
2023-01-04T05:46:32.650Z,51.00
2023-01-04T05:49:34.774Z,51.08
2023-01-04T05:52:36.914Z,51.14
2023-01-04T05:55:39.046Z,51.22
2023-01-04T05:58:41.013Z,51.21
2023-01-04T06:01:43.113Z,51.20
2023-01-04T06:04:45.404Z,51.26
2023-01-04T06:07:47.496Z,51.31
2023-01-04T06:10:55.475Z,51.32
2023-01-04T06:13:57.617Z,51.36
2023-01-04T06:17:00.329Z,51.43
2023-01-04T06:20:03.622Z,51.41
2023-01-04T06:23:05.600Z,51.37
2023-01-04T06:26:07.788Z,51.29
2023-01-04T06:29:09.818Z,51.14
2023-01-04T06:32:11.966Z,51.08
2023-01-04T06:35:14.223Z,51.14
2023-01-04T06:38:16.251Z,51.20
2023-01-04T06:41:18.633Z,51.23
2023-01-04T06:44:20.870Z,51.17
2023-01-04T06:47:23.053Z,51.10
2023-01-04T06:50:25.053Z,50.94
2023-01-04T06:53:27.136Z,50.94
2023-01-04T06:56:30.918Z,50.91
2023-01-04T06:59:32.875Z,50.99
2023-01-04T07:02:35.290Z,51.13
2023-01-04T07:05:37.421Z,51.18
2023-01-04T07:08:39.629Z,51.11
2023-01-04T07:11:41.693Z,51.05
2023-01-04T07:14:43.689Z,50.96
2023-01-04T07:17:48.456Z,50.89
2023-01-04T07:20:50.497Z,50.87
2023-01-04T07:23:52.494Z,50.84
2023-01-04T07:26:54.522Z,50.77
2023-01-04T07:29:56.513Z,50.74
2023-01-04T07:32:58.622Z,50.64
2023-01-04T07:36:05.881Z,50.58
2023-01-04T07:39:12.684Z,50.44
2023-01-04T07:42:14.790Z,50.34
2023-01-04T07:45:16.847Z,50.34
2023-01-04T07:48:18.864Z,49.98
2023-01-04T07:51:20.873Z,49.54
2023-01-04T07:54:24.332Z,49.50
2023-01-04T07:57:26.334Z,49.28
2023-01-04T08:00:28.339Z,49.10
2023-01-04T08:03:30.369Z,48.93
2023-01-04T08:06:33.027Z,48.84
2023-01-04T08:09:35.026Z,48.51
2023-01-04T08:12:37.016Z,48.15
2023-01-04T08:15:39.140Z,48.12
2023-01-04T08:18:41.121Z,48.28
2023-01-04T08:21:44.028Z,48.52
2023-01-04T08:24:46.112Z,48.35
2023-01-04T08:27:48.178Z,48.34
2023-01-04T08:30:50.205Z,48.07
2023-01-04T08:33:53.451Z,47.87
2023-01-04T08:36:56.512Z,47.67
2023-01-04T08:39:58.705Z,47.31
2023-01-04T08:43:00.788Z,47.17
2023-01-04T08:46:06.503Z,47.03
2023-01-04T08:49:08.698Z,46.60
2023-01-04T08:52:11.730Z,46.43
2023-01-04T08:55:19.986Z,46.35
2023-01-04T08:58:25.119Z,46.67
2023-01-04T09:01:27.213Z,47.08
2023-01-04T09:04:29.638Z,47.42
2023-01-04T09:07:32.780Z,47.66
2023-01-04T09:10:38.420Z,47.88
2023-01-04T09:13:41.497Z,48.02
2023-01-04T09:16:43.595Z,48.07
2023-01-04T09:19:45.611Z,48.05
2023-01-04T09:22:47.673Z,47.94
2023-01-04T09:25:50.025Z,48.06
2023-01-04T09:28:53.628Z,48.34
2023-01-04T09:31:55.737Z,48.13
2023-01-04T09:34:57.812Z,48.11
2023-01-04T09:37:59.882Z,47.83
2023-01-04T09:41:18.103Z,47.68
2023-01-04T09:48:10.364Z,47.41
2023-01-04T09:51:16.604Z,47.32
2023-01-04T09:54:21.838Z,47.44
2023-01-04T09:57:33.896Z,47.62
2023-01-04T10:00:44.109Z,47.92
2023-01-04T10:04:01.821Z,48.14
2023-01-04T10:07:05.394Z,48.30
2023-01-04T10:10:17.858Z,48.46
2023-01-04T10:13:41.235Z,48.59
2023-01-04T10:17:20.265Z,48.74
2023-01-04T10:21:28.282Z,48.83
2023-01-04T10:24:52.215Z,48.97
2023-01-04T10:28:11.790Z,49.08
2023-01-04T10:31:47.928Z,49.15
2023-01-04T10:34:50.776Z,49.27
2023-01-04T10:37:58.654Z,49.37
2023-01-04T10:41:07.091Z,49.40
2023-01-04T10:44:18.161Z,49.52
2023-01-04T10:47:29.861Z,49.58
2023-01-04T10:51:07.313Z,49.60
2023-01-04T10:54:22.851Z,48.34
2023-01-04T10:57:57.014Z,47.33
2023-01-04T11:01:15.116Z,48.55
2023-01-04T11:04:29.960Z,48.76
2023-01-04T11:07:41.905Z,48.90
2023-01-04T11:11:03.499Z,48.92
2023-01-04T11:14:05.911Z,48.79
2023-01-04T11:17:10.649Z,48.95
2023-01-04T11:20:13.042Z,48.83
2023-01-04T11:23:20.118Z,49.18
2023-01-04T11:26:31.237Z,49.40
2023-01-04T11:29:52.651Z,49.68
2023-01-04T11:33:13.126Z,49.79
2023-01-04T11:36:36.068Z,49.94
2023-01-04T11:39:39.120Z,49.82
2023-01-04T11:42:41.122Z,49.95
2023-01-04T11:46:13.524Z,50.69
2023-01-04T11:49:21.728Z,51.45
2023-01-04T11:52:32.708Z,52.28
2023-01-04T11:55:34.831Z,53.06
2023-01-04T11:58:36.963Z,53.75
2023-01-04T12:01:42.670Z,54.51
2023-01-04T12:04:44.789Z,54.94
2023-01-04T12:07:47.612Z,55.51
2023-01-04T12:10:49.780Z,55.77
2023-01-04T12:13:52.049Z,55.90
2023-01-04T12:17:13.105Z,55.52
2023-01-04T12:20:19.905Z,54.91
2023-01-04T12:23:22.940Z,54.49
2023-01-04T12:26:25.159Z,54.19
2023-01-04T12:29:43.197Z,53.95
2023-01-04T12:32:46.770Z,53.87
2023-01-04T12:36:14.710Z,54.03
2023-01-04T12:39:16.819Z,53.97
2023-01-04T12:42:24.433Z,54.10
2023-01-04T12:45:26.456Z,54.24
2023-01-04T12:48:47.373Z,54.33
2023-01-04T12:52:12.764Z,54.59
2023-01-04T12:55:32.603Z,54.97
2023-01-04T12:59:06.837Z,55.12
2023-01-04T13:02:19.188Z,55.19
2023-01-04T13:08:45.611Z,55.51
2023-01-04T13:12:27.639Z,55.71
2023-01-04T13:15:51.307Z,55.94
2023-01-04T13:18:54.852Z,56.22
2023-01-04T13:21:56.990Z,56.26
2023-01-04T13:25:02.805Z,56.23
2023-01-04T13:28:05.230Z,56.89
2023-01-04T13:31:07.332Z,57.11
2023-01-04T13:34:21.018Z,57.55
2023-01-04T13:37:34.682Z,57.42
2023-01-04T13:40:48.779Z,57.74
2023-01-04T13:44:10.236Z,57.69
2023-01-04T13:47:12.352Z,56.75
2023-01-04T13:50:29.860Z,56.52
2023-01-04T13:53:33.019Z,56.20
2023-01-04T13:56:35.540Z,55.28
2023-01-04T13:59:37.932Z,54.88
2023-01-04T14:02:40.333Z,54.17
2023-01-04T14:05:51.005Z,53.68
2023-01-04T14:09:00.705Z,53.43
2023-01-04T14:12:13.961Z,53.53
2023-01-04T14:15:24.777Z,53.37
2023-01-04T14:18:29.494Z,53.43
2023-01-04T14:21:37.075Z,53.32
2023-01-04T14:25:08.428Z,53.35
2023-01-04T14:28:20.035Z,53.27
2023-01-04T14:31:28.543Z,53.26
2023-01-04T14:34:30.595Z,53.13
2023-01-04T14:37:35.328Z,53.02
2023-01-04T14:40:38.483Z,53.03
2023-01-04T14:43:47.475Z,53.02
2023-01-04T14:46:51.964Z,52.99
2023-01-04T14:49:54.577Z,52.70
2023-01-04T14:52:56.582Z,52.54
2023-01-04T14:55:59.318Z,52.36
2023-01-04T14:59:01.457Z,52.20
2023-01-04T15:02:03.703Z,52.17
2023-01-04T15:05:06.122Z,52.01
2023-01-04T15:08:11.129Z,51.97
2023-01-04T15:11:13.989Z,51.88
2023-01-04T15:14:16.284Z,51.80
2023-01-04T15:17:18.251Z,51.74
2023-01-04T15:20:20.297Z,51.65
2023-01-04T15:23:22.368Z,51.57
2023-01-04T15:26:24.446Z,51.40
2023-01-04T15:29:26.445Z,51.28
2023-01-04T15:32:28.502Z,51.17
2023-01-04T15:35:30.512Z,51.08
2023-01-04T15:38:32.672Z,51.12
2023-01-04T15:41:53.520Z,51.05
2023-01-04T15:44:55.590Z,51.12
2023-01-04T15:48:02.902Z,51.20
2023-01-04T15:51:07.653Z,51.20
2023-01-04T15:54:09.818Z,51.13
2023-01-04T15:57:13.694Z,51.15
2023-01-04T16:00:16.307Z,51.05
2023-01-04T16:03:18.374Z,51.06
2023-01-04T16:06:20.937Z,51.07
2023-01-04T16:09:23.030Z,51.08
2023-01-04T16:12:43.367Z,51.30
2023-01-04T16:15:45.486Z,51.33
2023-01-04T16:18:49.744Z,51.36
2023-01-04T16:21:52.030Z,51.46
2023-01-04T16:25:11.197Z,51.50
2023-01-04T16:28:13.784Z,51.57
2023-01-04T16:31:15.857Z,51.59
2023-01-04T16:34:17.968Z,51.65
2023-01-04T16:37:20.151Z,51.70
2023-01-04T16:40:22.355Z,51.72
2023-01-04T16:43:24.435Z,51.70
2023-01-04T16:46:31.878Z,51.71
2023-01-04T16:49:33.982Z,51.76
2023-01-04T16:52:36.095Z,51.79
2023-01-04T16:55:38.118Z,51.74
2023-01-04T16:58:43.784Z,51.76
2023-01-04T17:01:57.436Z,51.79
2023-01-04T17:05:00.918Z,51.70
2023-01-04T17:08:03.100Z,51.56
2023-01-04T17:11:56.331Z,51.51
2023-01-04T17:14:33.590Z,51.45
2023-01-04T17:17:35.616Z,51.34
2023-01-04T17:20:37.910Z,51.46
2023-01-04T17:23:43.602Z,51.66
2023-01-04T17:26:45.831Z,51.82
2023-01-04T17:29:47.913Z,51.91
2023-01-04T17:32:50.003Z,51.95
2023-01-04T17:35:52.021Z,52.09
2023-01-04T17:38:54.198Z,52.11
2023-01-04T17:41:56.418Z,52.16
2023-01-04T17:44:58.509Z,52.11
2023-01-04T17:48:00.576Z,52.03
2023-01-04T17:51:14.797Z,51.98
2023-01-04T17:54:17.308Z,51.80
2023-01-04T17:57:19.303Z,51.73
2023-01-04T18:00:21.464Z,51.75
2023-01-04T18:03:23.747Z,51.62
2023-01-04T18:06:30.790Z,51.52
2023-01-04T18:09:33.052Z,51.51
2023-01-04T18:12:35.018Z,51.51
2023-01-04T18:15:43.862Z,51.62
2023-01-04T18:18:50.979Z,51.51
2023-01-04T18:21:53.109Z,51.56
2023-01-04T18:24:55.145Z,51.55
2023-01-04T18:27:57.179Z,51.56
2023-01-04T18:30:59.226Z,51.50
2023-01-04T18:34:01.200Z,51.50
2023-01-04T18:37:03.270Z,51.57
2023-01-04T18:40:05.755Z,51.62
2023-01-04T18:43:07.739Z,51.78
2023-01-04T18:46:10.921Z,52.22
2023-01-04T18:49:12.944Z,52.53
2023-01-04T18:52:15.357Z,52.79
2023-01-04T18:55:17.722Z,52.94
2023-01-04T18:58:19.723Z,52.96
2023-01-04T19:01:23.034Z,53.12
2023-01-04T19:04:25.240Z,53.10
2023-01-04T19:07:27.352Z,53.17
2023-01-04T19:10:29.367Z,53.03
2023-01-04T19:13:32.212Z,53.11
2023-01-04T19:16:34.267Z,53.03
2023-01-04T19:19:36.671Z,53.06
2023-01-04T19:22:38.883Z,53.04
2023-01-04T19:25:41.424Z,53.01
2023-01-04T19:28:43.384Z,53.06
2023-01-04T19:31:45.471Z,53.01
2023-01-04T19:34:47.520Z,53.06
2023-01-04T19:37:49.678Z,52.95
2023-01-04T19:40:58.301Z,52.94
2023-01-04T19:44:04.184Z,52.96
2023-01-04T19:47:06.380Z,53.01
2023-01-04T19:50:09.851Z,53.01
2023-01-04T19:53:12.837Z,52.94
2023-01-04T19:56:16.800Z,52.95
2023-01-04T19:59:19.136Z,52.94
2023-01-04T20:02:21.409Z,52.94
2023-01-04T20:05:23.570Z,52.93
2023-01-04T20:08:25.621Z,52.94
2023-01-04T20:11:27.648Z,52.92
2023-01-04T20:14:30.226Z,52.94
2023-01-04T20:17:32.256Z,52.86
2023-01-04T20:20:34.271Z,52.87
2023-01-04T20:23:36.885Z,52.82
2023-01-04T20:26:39.207Z,52.85
2023-01-04T20:29:41.338Z,52.82
2023-01-04T20:32:44.006Z,52.78
2023-01-04T20:35:46.104Z,52.75
2023-01-04T20:38:49.253Z,52.75
2023-01-04T20:42:17.397Z,52.82
2023-01-04T20:45:19.484Z,52.82
2023-01-04T20:48:21.571Z,52.72
2023-01-04T20:51:25.771Z,52.72
2023-01-04T20:54:27.850Z,52.77
2023-01-04T20:57:31.707Z,52.70
2023-01-04T21:00:33.700Z,52.75
2023-01-04T21:03:36.526Z,52.76
2023-01-04T21:06:38.601Z,52.78
2023-01-04T21:09:40.576Z,52.76
2023-01-04T21:12:42.593Z,52.75
2023-01-04T21:15:44.714Z,52.75
2023-01-04T21:18:46.838Z,52.66
2023-01-04T21:21:48.848Z,52.64
2023-01-04T21:24:50.843Z,52.80
2023-01-04T21:27:52.886Z,52.84
2023-01-04T21:30:54.898Z,52.88
2023-01-04T21:33:57.070Z,52.95
2023-01-04T21:36:59.179Z,52.98
2023-01-04T21:40:01.241Z,53.06
2023-01-04T21:43:03.344Z,53.06
2023-01-04T21:48:47.142Z,52.94
2023-01-04T21:51:49.358Z,53.06
2023-01-04T21:54:51.682Z,53.12
2023-01-04T21:57:53.827Z,53.10
2023-01-04T22:00:56.800Z,53.14
2023-01-04T22:03:58.784Z,53.17
2023-01-04T22:07:00.800Z,53.14
2023-01-04T22:10:02.905Z,53.13
2023-01-04T22:13:04.935Z,53.14
2023-01-04T22:16:08.922Z,53.11
2023-01-04T22:19:14.897Z,53.13
2023-01-04T22:22:16.939Z,53.15
2023-01-04T22:25:18.977Z,53.10
2023-01-04T22:28:21.034Z,53.10
2023-01-04T22:31:23.117Z,53.10
2023-01-04T22:34:25.478Z,53.11
2023-01-04T22:37:27.493Z,53.10
2023-01-04T22:40:29.556Z,53.10
2023-01-04T22:43:31.604Z,53.10
2023-01-04T22:46:35.250Z,53.11
2023-01-04T22:49:37.320Z,53.11
2023-01-04T22:52:39.401Z,53.14
2023-01-04T22:56:16.993Z,53.10
2023-01-04T22:59:03.572Z,53.11
2023-01-04T23:02:05.710Z,53.12
2023-01-04T23:05:08.214Z,53.09
2023-01-04T23:08:10.223Z,53.11
2023-01-04T23:11:18.012Z,53.09
2023-01-04T23:14:20.123Z,53.10
2023-01-04T23:17:22.124Z,53.07
2023-01-04T23:20:24.145Z,53.05
2023-01-04T23:23:26.392Z,53.07
2023-01-04T23:26:30.165Z,53.09
2023-01-04T23:29:32.195Z,53.07
2023-01-04T23:32:34.243Z,53.08
2023-01-04T23:35:36.315Z,53.04
2023-01-04T23:38:38.778Z,53.07
2023-01-04T23:41:47.475Z,53.06
2023-01-04T23:44:49.864Z,53.04
2023-01-04T23:47:52.257Z,53.04
2023-01-04T23:50:57.852Z,53.05
2023-01-04T23:53:59.927Z,53.07
2023-01-04T23:57:02.716Z,53.06
